Time;durP1;ratioP1;P1;durP2;ratioP2;P2;SDS_P1;SDS_P2;PMS_P1;PMS_P2;Temp;Humidity;BMP_temperature;BMP_pressure;BME280_temperature;BME280_humidity;BME280_pressure;Samples;Min_cycle;Max_cycle;Signal;HPM_P1;HPM_P2
2023/08/14 00:02:22;;;;;;;11.13;3.80;;;17.30;99.90;;;;;;5113988;28;20962;-61
2023/08/14 00:04:48;;;;;;;7.03;5.70;;;17.30;99.90;;;;;;5114292;28;20840;-63
2023/08/14 00:07:17;;;;;;;8.10;4.33;;;17.20;99.90;;;;;;5113983;28;20752;-63
2023/08/14 00:09:43;;;;;;;4.67;3.93;;;17.20;99.90;;;;;;5113764;28;20471;-65
2023/08/14 00:12:10;;;;;;;5.77;4.63;;;17.10;99.90;;;;;;5114300;28;20452;-62
2023/08/14 00:14:37;;;;;;;7.20;4.47;;;17.10;99.90;;;;;;5113850;28;20444;-63
2023/08/14 00:17:03;;;;;;;6.60;3.70;;;17.10;99.90;;;;;;5114017;28;20476;-62
2023/08/14 00:19:30;;;;;;;6.20;4.30;;;17.10;99.90;;;;;;5114007;28;20806;-62
2023/08/14 00:21:57;;;;;;;4.97;4.30;;;17.00;99.90;;;;;;5113705;28;20456;-63
2023/08/14 00:24:25;;;;;;;7.73;4.70;;;17.00;99.90;;;;;;5114316;28;20443;-63
2023/08/14 00:26:52;;;;;;;6.87;4.30;;;17.00;99.90;;;;;;5114319;28;20433;-63
2023/08/14 00:29:18;;;;;;;6.73;5.33;;;17.00;99.90;;;;;;5117964;28;20441;-63
2023/08/14 00:31:45;;;;;;;6.40;4.63;;;17.00;99.90;;;;;;5117805;28;20476;-64
2023/08/14 00:34:12;;;;;;;4.90;4.07;;;17.00;99.90;;;;;;5118181;28;20795;-63
2023/08/14 00:36:39;;;;;;;8.30;5.00;;;17.00;99.90;;;;;;5117486;28;20564;-62
2023/08/14 00:39:06;;;;;;;6.77;4.53;;;17.00;99.90;;;;;;5117342;28;20440;-62
2023/08/14 00:41:35;;;;;;;6.40;3.83;;;17.00;99.90;;;;;;5117624;28;20469;-64
2023/08/14 00:44:02;;;;;;;6.70;3.93;;;17.00;99.90;;;;;;5117483;28;20874;-64
2023/08/14 00:46:29;;;;;;;7.57;3.67;;;17.00;99.90;;;;;;5117277;28;20443;-63
2023/08/14 00:48:56;;;;;;;5.60;4.30;;;17.00;99.90;;;;;;5116880;28;20557;-62
2023/08/14 00:51:24;;;;;;;4.50;3.80;;;17.00;99.90;;;;;;5117026;28;20456;-63
2023/08/14 00:53:52;;;;;;;5.70;4.00;;;16.90;99.90;;;;;;5117640;28;20876;-63
2023/08/14 00:56:20;;;;;;;5.17;4.23;;;16.90;99.90;;;;;;5117008;28;20965;-63
2023/08/14 00:58:49;;;;;;;6.07;3.87;;;16.90;99.90;;;;;;5116961;28;20941;-63
2023/08/14 01:01:16;;;;;;;5.23;3.83;;;16.90;99.90;;;;;;5116998;28;20441;-62
2023/08/14 01:03:43;;;;;;;8.00;5.47;;;16.90;99.90;;;;;;5117020;28;20460;-63
2023/08/14 01:06:10;;;;;;;5.93;4.30;;;16.80;99.90;;;;;;5117023;28;20448;-63
2023/08/14 01:08:37;;;;;;;4.93;3.93;;;16.90;99.90;;;;;;5116915;28;20455;-63
2023/08/14 01:11:09;;;;;;;6.33;3.87;;;16.80;99.90;;;;;;5116658;28;20951;-63
2023/08/14 01:13:41;;;;;;;6.20;4.40;;;16.80;99.90;;;;;;5116704;28;20511;-63
2023/08/14 01:16:13;;;;;;;7.50;4.60;;;16.80;99.90;;;;;;5116366;28;20421;-63
2023/08/14 01:18:43;;;;;;;7.60;4.13;;;16.80;99.90;;;;;;5116899;27;20421;-62
2023/08/14 01:21:14;;;;;;;6.17;4.07;;;16.80;99.90;;;;;;5116749;28;20469;-62
2023/08/14 01:23:57;;;;;;;4.97;3.90;;;16.80;99.90;;;;;;5116509;28;20458;-62
2023/08/14 01:26:25;;;;;;;5.67;3.83;;;16.70;99.90;;;;;;5116258;28;20926;-62
2023/08/14 01:28:53;;;;;;;4.30;3.90;;;16.70;99.90;;;;;;5116152;28;20950;-63
2023/08/14 01:31:20;;;;;;;9.10;4.17;;;16.70;99.90;;;;;;5116168;28;20544;-62
2023/08/14 01:33:47;;;;;;;7.50;3.83;;;16.70;99.90;;;;;;5115723;28;20471;-63
2023/08/14 01:36:21;;;;;;;4.70;3.37;;;16.70;99.90;;;;;;5116240;28;20433;-63
2023/08/14 01:38:56;;;;;;;5.67;3.30;;;16.70;99.90;;;;;;5115979;28;20425;-62
2023/08/14 01:41:29;;;;;;;8.13;3.80;;;16.70;99.90;;;;;;5116271;28;20424;-63
2023/08/14 01:43:59;;;;;;;6.83;4.10;;;16.70;99.90;;;;;;5116173;28;20413;-63
2023/08/14 01:46:27;;;;;;;6.43;4.10;;;16.60;99.90;;;;;;5115742;28;20436;-63
2023/08/14 01:48:56;;;;;;;8.67;4.40;;;16.60;99.90;;;;;;5116058;28;20440;-63
2023/08/14 01:51:25;;;;;;;7.40;4.30;;;16.60;99.90;;;;;;5116010;28;20440;-63
2023/08/14 01:53:52;;;;;;;4.40;4.00;;;16.60;99.90;;;;;;5115851;28;20432;-63
2023/08/14 01:56:18;;;;;;;6.40;4.30;;;16.60;99.90;;;;;;5116205;28;20439;-62
2023/08/14 01:58:46;;;;;;;6.40;4.50;;;16.60;99.90;;;;;;5115662;28;20477;-62
2023/08/14 02:01:13;;;;;;;8.13;4.67;;;16.60;99.90;;;;;;5115814;28;20443;-63
2023/08/14 02:03:40;;;;;;;4.73;3.73;;;16.60;99.90;;;;;;5115604;28;20459;-62
2023/08/14 02:06:06;;;;;;;4.60;4.13;;;16.50;99.90;;;;;;5115366;28;20444;-62
2023/08/14 02:08:33;;;;;;;10.30;4.47;;;16.60;99.90;;;;;;5115647;28;20443;-63
2023/08/14 02:11:06;;;;;;;7.70;4.13;;;16.60;99.90;;;;;;5115572;28;20444;-63
2023/08/14 02:13:32;;;;;;;7.87;4.00;;;16.50;99.90;;;;;;5115668;28;20488;-63
2023/08/14 02:16:01;;;;;;;5.40;4.43;;;16.50;99.90;;;;;;5115982;28;20444;-63
2023/08/14 02:18:27;;;;;;;5.50;4.67;;;16.50;99.90;;;;;;5115492;28;20480;-63
2023/08/14 02:20:54;;;;;;;7.30;3.97;;;16.50;99.90;;;;;;5115754;28;20439;-63
2023/08/14 02:23:21;;;;;;;6.40;4.40;;;16.50;99.90;;;;;;5115166;28;20466;-63
2023/08/14 02:25:48;;;;;;;5.77;4.37;;;16.40;99.90;;;;;;5114995;28;20513;-64
2023/08/14 02:28:14;;;;;;;5.07;4.10;;;16.40;99.90;;;;;;5115744;28;20463;-63
2023/08/14 02:30:42;;;;;;;5.60;4.27;;;16.40;99.90;;;;;;5115206;28;20467;-63
2023/08/14 02:33:10;;;;;;;9.37;5.63;;;16.30;99.90;;;;;;5114722;28;20480;-64
2023/08/14 02:35:37;;;;;;;6.83;4.57;;;16.30;99.90;;;;;;5115171;28;20446;-63
2023/08/14 02:38:05;;;;;;;7.67;4.13;;;16.30;99.90;;;;;;5115358;28;20487;-64
2023/08/14 02:40:32;;;;;;;6.50;4.43;;;16.30;99.90;;;;;;5115097;28;20571;-63
2023/08/14 02:43:00;;;;;;;6.90;5.13;;;16.30;99.90;;;;;;5114713;28;20464;-62
2023/08/14 02:45:27;;;;;;;10.43;5.00;;;16.30;99.90;;;;;;5114900;28;20452;-62
2023/08/14 02:47:53;;;;;;;9.50;5.70;;;16.30;99.90;;;;;;5115376;28;20434;-63
2023/08/14 02:50:22;;;;;;;8.17;4.97;;;16.30;99.90;;;;;;5114188;28;20434;-63
2023/08/14 02:52:49;;;;;;;8.60;4.40;;;16.30;99.90;;;;;;5114549;28;20934;-64
2023/08/14 02:55:15;;;;;;;5.20;4.70;;;16.40;99.90;;;;;;5114782;28;20454;-63
2023/08/14 02:57:42;;;;;;;4.80;4.30;;;16.50;99.90;;;;;;5114297;28;20482;-63
2023/08/14 03:00:10;;;;;;;6.73;4.57;;;16.50;99.90;;;;;;5115404;28;20515;-63
2023/08/14 03:02:37;;;;;;;5.07;4.33;;;16.50;99.90;;;;;;5114809;28;20458;-63
2023/08/14 03:05:04;;;;;;;6.90;4.50;;;16.60;99.90;;;;;;5114783;28;20450;-62
2023/08/14 03:07:32;;;;;;;8.43;3.97;;;16.60;99.90;;;;;;5114521;28;20435;-62
2023/08/14 03:09:59;;;;;;;9.10;4.20;;;16.60;99.90;;;;;;5114136;28;20944;-62
2023/08/14 03:12:26;;;;;;;5.47;3.67;;;16.70;99.90;;;;;;5114403;28;20456;-62
2023/08/14 03:14:52;;;;;;;5.87;3.63;;;16.80;99.90;;;;;;5114288;28;20442;-62
2023/08/14 03:17:19;;;;;;;5.73;4.07;;;16.80;99.90;;;;;;5115327;28;20473;-62
2023/08/14 03:19:46;;;;;;;5.10;3.47;;;16.80;99.90;;;;;;5120417;28;20459;-62
2023/08/14 03:22:13;;;;;;;7.23;4.07;;;16.90;99.90;;;;;;5118535;28;20469;-62
2023/08/14 03:24:41;;;;;;;5.03;4.00;;;16.90;99.90;;;;;;5119443;28;20800;-63
2023/08/14 03:27:07;;;;;;;5.60;3.90;;;16.90;99.90;;;;;;5120837;28;20476;-62
2023/08/14 03:29:34;;;;;;;7.10;4.33;;;17.00;99.90;;;;;;5120039;28;20558;-62
2023/08/14 03:32:01;;;;;;;5.77;3.80;;;17.00;99.90;;;;;;5117094;28;20477;-62
2023/08/14 03:34:28;;;;;;;11.30;6.10;;;17.00;99.90;;;;;;5118865;28;20429;-63
2023/08/14 03:36:54;;;;;;;4.93;3.53;;;17.00;99.90;;;;;;5117638;28;20440;-63
2023/08/14 03:39:22;;;;;;;6.70;4.83;;;17.00;99.90;;;;;;5115924;28;20481;-63
2023/08/14 03:41:50;;;;;;;11.03;4.60;;;17.10;99.90;;;;;;5115865;28;20535;-63
2023/08/14 03:44:17;;;;;;;7.83;3.90;;;17.10;99.90;;;;;;5116420;28;20445;-63
2023/08/14 03:46:43;;;;;;;6.77;3.60;;;17.10;99.90;;;;;;5116221;28;20444;-64
2023/08/14 03:49:10;;;;;;;6.40;4.13;;;17.20;99.90;;;;;;5118426;28;20438;-63
2023/08/14 03:51:37;;;;;;;5.23;3.63;;;17.20;99.90;;;;;;5117667;28;20467;-64
2023/08/14 03:54:04;;;;;;;4.77;3.77;;;17.20;99.90;;;;;;5116136;28;20449;-64
2023/08/14 03:56:30;;;;;;;6.77;3.60;;;17.20;99.90;;;;;;5115877;28;20467;-63
2023/08/14 03:58:58;;;;;;;4.33;3.93;;;17.20;99.90;;;;;;5113640;28;20475;-64
2023/08/14 04:01:25;;;;;;;5.00;3.57;;;17.20;99.90;;;;;;5113697;28;20444;-64
2023/08/14 04:03:52;;;;;;;5.83;3.47;;;17.10;99.90;;;;;;5113843;28;20443;-62
2023/08/14 04:06:19;;;;;;;4.30;3.90;;;17.10;99.90;;;;;;5113904;28;20440;-63
2023/08/14 04:12:05;;;;;;;4.87;3.67;;;17.10;99.90;;;;;;5111943;27;20548;-62
2023/08/14 04:14:33;;;;;;;6.30;3.70;;;17.20;99.90;;;;;;5111530;28;20453;-63
2023/08/14 04:17:00;;;;;;;5.80;3.83;;;17.20;99.90;;;;;;5111967;28;20944;-63
2023/08/14 04:19:27;;;;;;;7.30;3.40;;;17.20;99.90;;;;;;5112743;28;20433;-63
2023/08/14 04:21:54;;;;;;;4.60;3.33;;;17.20;99.90;;;;;;5113951;28;20569;-62
2023/08/14 04:24:21;;;;;;;4.07;3.60;;;17.20;99.90;;;;;;5114756;28;20449;-62
2023/08/14 04:26:47;;;;;;;5.07;4.17;;;17.20;99.90;;;;;;5113613;28;20441;-63
2023/08/14 04:29:16;;;;;;;7.57;3.90;;;17.30;99.90;;;;;;5110794;28;20441;-62
2023/08/14 04:31:43;;;;;;;5.80;3.93;;;17.30;99.90;;;;;;5110537;28;20473;-62
2023/08/14 04:34:10;;;;;;;5.50;4.17;;;17.40;99.90;;;;;;5121572;22;20490;-62
2023/08/14 04:36:37;;;;;;;6.17;3.70;;;17.50;99.90;;;;;;5090188;28;20479;-61
2023/08/14 04:39:05;;;;;;;6.83;4.10;;;17.50;99.90;;;;;;5091172;28;20439;-61
2023/08/14 04:41:32;;;;;;;5.47;4.30;;;17.50;99.90;;;;;;5090797;28;20944;-61
2023/08/14 04:43:58;;;;;;;6.50;4.13;;;17.60;99.90;;;;;;5090470;28;20487;-61
2023/08/14 04:46:31;;;;;;;5.50;3.83;;;17.60;99.90;;;;;;5090127;28;20442;-61
2023/08/14 04:48:58;;;;;;;6.40;3.80;;;17.70;99.90;;;;;;5089895;28;20439;-61
2023/08/14 04:51:25;;;;;;;7.30;3.67;;;17.80;99.90;;;;;;5089906;28;20844;-61
2023/08/14 04:53:52;;;;;;;4.07;3.27;;;17.90;99.90;;;;;;5090605;28;20460;-60
2023/08/14 04:56:18;;;;;;;5.27;3.43;;;18.00;99.90;;;;;;5089745;28;20435;-61
2023/08/14 04:58:45;;;;;;;3.33;3.03;;;18.10;99.90;;;;;;5089717;28;20435;-61
2023/08/14 05:01:12;;;;;;;4.40;3.33;;;18.20;99.90;;;;;;5088755;28;20437;-60
2023/08/14 05:03:41;;;;;;;4.13;3.67;;;18.20;99.90;;;;;;5089715;28;20461;-60
2023/08/14 05:06:07;;;;;;;5.40;3.20;;;18.30;99.90;;;;;;5090465;28;20438;-60
2023/08/14 05:08:34;;;;;;;5.93;3.73;;;18.40;99.90;;;;;;5090813;28;20447;-60
2023/08/14 05:11:01;;;;;;;12.80;4.47;;;18.40;99.90;;;;;;5089384;28;20480;-60
2023/08/14 05:13:28;;;;;;;7.63;3.70;;;18.50;99.90;;;;;;5089909;28;20457;-60
2023/08/14 05:15:56;;;;;;;5.30;3.50;;;18.70;99.90;;;;;;5089896;28;20449;-60
2023/08/14 05:18:22;;;;;;;3.70;3.30;;;18.80;99.90;;;;;;5089444;28;20460;-61
2023/08/14 05:20:53;;;;;;;6.87;2.93;;;18.80;99.90;;;;;;5089313;28;20456;-60
2023/08/14 05:23:20;;;;;;;5.50;3.60;;;18.90;99.90;;;;;;5076189;28;20476;-60
2023/08/14 05:25:47;;;;;;;5.40;3.40;;;19.00;99.90;;;;;;5075782;28;20440;-60
2023/08/14 05:28:14;;;;;;;5.87;3.53;;;19.00;99.90;;;;;;5076222;28;20452;-61
2023/08/14 05:30:44;;;;;;;6.10;3.10;;;19.00;99.90;;;;;;5076129;28;20500;-60
2023/08/14 05:33:10;;;;;;;5.07;4.07;;;18.90;99.90;;;;;;5075489;28;20898;-61
2023/08/14 05:35:37;;;;;;;4.97;3.50;;;18.90;99.90;;;;;;5077129;28;20433;-60
2023/08/14 05:38:06;;;;;;;4.47;3.47;;;18.90;99.90;;;;;;5075787;28;20451;-60
2023/08/14 05:40:33;;;;;;;8.07;3.17;;;19.00;99.90;;;;;;5076205;28;20788;-61
2023/08/14 05:43:03;;;;;;;5.33;3.30;;;19.10;99.90;;;;;;5075733;28;20821;-61
2023/08/14 05:45:30;;;;;;;4.90;3.50;;;19.20;99.90;;;;;;5075243;28;20448;-61
2023/08/14 05:47:57;;;;;;;3.40;3.10;;;19.20;99.90;;;;;;5075482;28;20440;-61
2023/08/14 05:50:25;;;;;;;7.23;3.07;;;19.30;99.90;;;;;;5074899;28;20969;-61
2023/08/14 05:52:52;;;;;;;7.00;3.03;;;19.30;99.90;;;;;;5075159;28;20441;-61
2023/08/14 05:55:20;;;;;;;5.80;3.60;;;19.40;99.90;;;;;;5075052;28;20450;-61
2023/08/14 05:57:46;;;;;;;6.23;3.40;;;19.50;99.90;;;;;;5074539;28;20954;-61
2023/08/14 06:00:14;;;;;;;8.40;3.67;;;19.70;99.90;;;;;;5074779;28;20441;-61
2023/08/14 06:02:41;;;;;;;5.07;3.10;;;19.80;99.90;;;;;;5074875;28;20450;-61
2023/08/14 06:05:08;;;;;;;7.37;3.90;;;19.90;99.90;;;;;;5074841;28;20773;-61
2023/08/14 06:07:35;;;;;;;7.17;3.60;;;20.10;99.90;;;;;;5075030;28;20441;-60
2023/08/14 06:10:02;;;;;;;7.43;3.30;;;20.20;99.90;;;;;;5075651;28;20457;-60
2023/08/14 06:12:30;;;;;;;6.03;3.03;;;20.40;99.90;;;;;;5075170;28;20484;-60
2023/08/14 06:14:57;;;;;;;5.90;3.53;;;20.50;99.90;;;;;;5074598;28;20459;-60
2023/08/14 06:17:24;;;;;;;4.30;3.27;;;20.60;99.90;;;;;;5074558;28;20454;-60
2023/08/14 06:19:51;;;;;;;5.57;3.17;;;20.70;99.90;;;;;;5074531;28;20557;-60
2023/08/14 06:22:18;;;;;;;5.30;3.80;;;20.80;99.90;;;;;;5074687;28;20435;-60
2023/08/14 06:24:45;;;;;;;8.93;4.27;;;20.90;99.90;;;;;;5074675;28;20470;-59
2023/08/14 06:27:12;;;;;;;7.50;3.30;;;21.00;99.90;;;;;;5074756;28;20447;-60
2023/08/14 06:29:40;;;;;;;6.33;3.77;;;21.10;99.90;;;;;;5073666;28;20925;-60
2023/08/14 06:32:07;;;;;;;6.73;3.13;;;21.20;99.90;;;;;;5080829;28;20473;-60
2023/08/14 06:34:33;;;;;;;5.63;3.23;;;21.30;99.90;;;;;;5085183;28;20475;-61
2023/08/14 06:37:00;;;;;;;4.93;3.00;;;21.40;99.90;;;;;;5080056;28;20442;-60
2023/08/14 06:39:27;;;;;;;3.47;2.70;;;21.40;99.90;;;;;;5074926;28;20447;-61
2023/08/14 06:41:54;;;;;;;3.33;3.00;;;21.50;99.90;;;;;;5075333;28;20443;-61
2023/08/14 06:44:21;;;;;;;5.80;3.10;;;21.70;99.90;;;;;;5075119;28;20459;-61
2023/08/14 06:46:49;;;;;;;5.50;3.47;;;21.80;99.90;;;;;;5075475;28;20956;-62
2023/08/14 06:49:16;;;;;;;6.27;3.17;;;21.90;99.90;;;;;;5074846;28;20900;-60
2023/08/14 06:51:42;;;;;;;6.47;3.70;;;22.00;99.90;;;;;;5074910;28;20578;-62
2023/08/14 06:54:09;;;;;;;3.50;3.20;;;22.10;99.90;;;;;;5075200;28;20459;-61
2023/08/14 06:56:36;;;;;;;4.70;3.40;;;22.10;99.90;;;;;;5074685;28;20447;-61
2023/08/14 06:59:03;;;;;;;5.77;3.73;;;22.20;99.90;;;;;;5074993;28;20439;-62
2023/08/14 07:01:29;;;;;;;5.93;3.30;;;22.20;99.90;;;;;;5074496;28;20497;-60
2023/08/14 07:03:57;;;;;;;4.27;2.93;;;22.40;99.90;;;;;;5074857;28;20482;-61
2023/08/14 07:06:24;;;;;;;3.67;2.90;;;22.50;99.30;;;;;;5074294;28;20803;-61
2023/08/14 07:08:51;;;;;;;7.90;3.77;;;22.70;98.60;;;;;;5074014;28;20441;-61
2023/08/14 07:11:18;;;;;;;12.20;2.70;;;22.80;97.70;;;;;;5076213;28;20482;-61
2023/08/14 07:13:45;;;;;;;5.00;3.00;;;22.90;97.00;;;;;;5076442;28;20880;-64
2023/08/14 07:16:11;;;;;;;3.70;2.87;;;23.00;96.60;;;;;;5075963;28;20446;-60
2023/08/14 07:18:39;;;;;;;2.40;2.10;;;23.20;95.80;;;;;;5076163;28;20454;-61
2023/08/14 07:21:06;;;;;;;6.90;3.20;;;23.30;94.90;;;;;;5074495;28;20534;-60
2023/08/14 07:23:33;;;;;;;3.50;3.10;;;23.30;94.20;;;;;;5074742;28;20475;-61
2023/08/14 07:26:03;;;;;;;5.33;2.67;;;23.40;93.50;;;;;;5075585;28;20447;-62
2023/08/14 07:28:30;;;;;;;5.07;3.07;;;23.50;92.60;;;;;;5074974;28;20485;-61
2023/08/14 07:30:57;;;;;;;3.37;2.60;;;23.50;91.60;;;;;;5074085;28;20831;-60
2023/08/14 07:33:24;;;;;;;4.00;2.50;;;23.50;91.00;;;;;;5074156;28;20478;-60
2023/08/14 07:35:50;;;;;;;7.10;2.67;;;23.70;90.50;;;;;;5074014;28;20443;-62
2023/08/14 07:38:19;;;;;;;3.27;2.40;;;23.70;90.20;;;;;;5074505;28;20447;-62
2023/08/14 07:40:45;;;;;;;4.00;2.60;;;23.80;89.40;;;;;;5074066;28;20471;-61
2023/08/14 07:43:12;;;;;;;4.10;2.70;;;23.90;88.10;;;;;;5073813;28;20846;-62
2023/08/14 07:45:39;;;;;;;5.60;2.80;;;24.10;86.70;;;;;;5073587;28;20438;-61
2023/08/14 07:48:06;;;;;;;4.00;2.73;;;24.20;85.40;;;;;;5073779;28;20443;-60
2023/08/14 07:50:32;;;;;;;3.60;2.30;;;24.30;84.40;;;;;;5073484;28;21016;-62
2023/08/14 07:52:59;;;;;;;2.90;2.10;;;24.40;83.30;;;;;;5073861;28;20569;-61
2023/08/14 07:55:27;;;;;;;6.00;2.40;;;24.50;82.30;;;;;;5074727;28;20542;-61
2023/08/14 07:57:54;;;;;;;4.23;2.60;;;24.70;81.10;;;;;;5074317;28;20442;-62
2023/08/14 08:00:21;;;;;;;4.43;2.80;;;24.90;79.60;;;;;;5074178;28;20588;-62
2023/08/14 08:02:48;;;;;;;4.00;2.43;;;25.20;77.40;;;;;;5078246;28;20439;-59
2023/08/14 08:05:15;;;;;;;4.10;2.47;;;25.30;76.00;;;;;;5077277;28;20439;-63
2023/08/14 08:07:42;;;;;;;6.17;2.73;;;25.40;75.10;;;;;;5078686;28;20443;-63
2023/08/14 08:10:09;;;;;;;3.20;2.30;;;25.50;74.60;;;;;;5077061;28;20439;-63
2023/08/14 08:12:37;;;;;;;6.37;2.20;;;25.50;73.80;;;;;;5077226;28;20493;-61
2023/08/14 08:15:05;;;;;;;7.20;2.60;;;25.50;73.40;;;;;;5077420;28;20441;-62
2023/08/14 08:17:32;;;;;;;6.20;2.43;;;25.50;73.20;;;;;;5077535;28;21011;-62
2023/08/14 08:19:59;;;;;;;7.07;3.07;;;25.60;73.00;;;;;;5076715;28;20930;-63
2023/08/14 08:22:26;;;;;;;4.13;3.00;;;25.70;72.50;;;;;;5078577;28;20454;-61
2023/08/14 08:24:52;;;;;;;4.60;2.70;;;25.80;71.70;;;;;;5079833;28;20473;-62
2023/08/14 08:27:19;;;;;;;5.13;3.03;;;25.60;71.50;;;;;;5080062;28;20453;-61
2023/08/14 08:29:47;;;;;;;5.23;2.80;;;25.50;72.80;;;;;;5079098;28;20449;-62
2023/08/14 08:32:14;;;;;;;6.47;3.00;;;25.50;71.90;;;;;;5079611;28;20486;-62
2023/08/14 08:34:41;;;;;;;5.20;2.83;;;25.60;72.10;;;;;;5078866;28;20471;-63
2023/08/14 08:37:07;;;;;;;4.17;2.30;;;25.70;71.90;;;;;;5078165;28;20431;-64
2023/08/14 08:39:35;;;;;;;4.10;2.37;;;25.90;71.30;;;;;;5077883;28;20474;-62
2023/08/14 08:42:03;;;;;;;4.40;2.40;;;26.00;70.80;;;;;;5077518;28;20439;-62
2023/08/14 08:44:32;;;;;;;6.13;2.50;;;26.10;70.10;;;;;;5077751;28;21010;-65
2023/08/14 08:47:06;;;;;;;4.27;3.37;;;26.10;69.80;;;;;;5076478;28;20482;-62
2023/08/14 08:49:35;;;;;;;5.77;2.83;;;26.20;69.50;;;;;;5077701;28;20426;-62
2023/08/14 08:52:03;;;;;;;3.43;2.60;;;26.30;69.20;;;;;;5076886;28;20861;-62
2023/08/14 08:54:31;;;;;;;4.70;2.67;;;26.30;69.30;;;;;;5077080;28;20805;-63
2023/08/14 08:56:59;;;;;;;4.27;2.40;;;26.30;69.30;;;;;;5078190;28;20449;-61
2023/08/14 08:59:26;;;;;;;3.90;2.20;;;26.40;68.60;;;;;;5081382;28;20538;-62
2023/08/14 09:01:53;;;;;;;2.93;2.30;;;26.50;68.20;;;;;;5081897;28;20443;-62
2023/08/14 09:04:21;;;;;;;4.33;2.57;;;26.60;67.90;;;;;;5080993;28;20455;-61
2023/08/14 09:06:48;;;;;;;7.47;2.57;;;26.70;67.50;;;;;;5080884;28;20464;-62
2023/08/14 09:09:16;;;;;;;3.30;2.23;;;26.60;67.00;;;;;;5081002;28;20457;-65
2023/08/14 09:11:43;;;;;;;5.20;2.73;;;26.60;67.10;;;;;;5081076;28;20471;-62
2023/08/14 09:14:10;;;;;;;3.83;2.90;;;26.70;66.90;;;;;;5081431;28;20497;-63
2023/08/14 09:16:37;;;;;;;4.10;2.40;;;26.90;66.40;;;;;;5081022;28;20779;-62
2023/08/14 09:19:04;;;;;;;2.40;2.07;;;27.20;65.50;;;;;;5080515;28;20446;-63
2023/08/14 09:21:32;;;;;;;5.00;2.63;;;27.40;64.60;;;;;;5079960;28;21006;-63
2023/08/14 09:23:59;;;;;;;2.80;2.33;;;27.60;64.20;;;;;;5080618;28;20467;-62
2023/08/14 09:26:26;;;;;;;3.40;2.00;;;27.70;63.50;;;;;;5080699;28;20443;-61
2023/08/14 09:28:53;;;;;;;3.20;2.10;;;27.90;63.00;;;;;;5080052;28;20446;-63
2023/08/14 09:31:21;;;;;;;3.80;2.47;;;27.80;62.30;;;;;;5078884;28;20441;-62
2023/08/14 09:33:48;;;;;;;3.83;2.80;;;27.80;62.00;;;;;;5079024;28;20478;-61
2023/08/14 09:36:14;;;;;;;4.93;2.50;;;27.90;61.50;;;;;;5078177;28;20436;-62
2023/08/14 09:38:43;;;;;;;4.53;2.53;;;28.10;60.80;;;;;;5078673;28;20453;-63
2023/08/14 09:41:10;;;;;;;4.27;2.60;;;28.50;60.00;;;;;;5079051;28;20553;-63
2023/08/14 09:43:37;;;;;;;4.83;2.60;;;28.80;59.10;;;;;;5080361;28;20967;-62
2023/08/14 09:46:04;;;;;;;7.53;2.60;;;28.80;58.50;;;;;;5078057;28;20447;-63
2023/08/14 09:48:41;;;;;;;4.47;2.67;;;28.80;58.30;;;;;;5081028;28;20467;-63
2023/08/14 09:51:11;;;;;;;4.70;2.83;;;29.10;58.10;;;;;;5079835;28;20504;-63
2023/08/14 09:53:47;;;;;;;6.87;4.20;;;29.30;57.40;;;;;;5080612;28;20486;-64
2023/08/14 09:56:14;;;;;;;4.83;3.57;;;29.50;56.90;;;;;;5078951;28;20403;-64
2023/08/14 09:58:41;;;;;;;4.47;2.80;;;29.60;56.60;;;;;;5077053;28;20445;-63
2023/08/14 10:01:09;;;;;;;4.43;2.83;;;29.50;56.50;;;;;;5077829;28;20450;-64
2023/08/14 10:03:37;;;;;;;4.17;2.77;;;29.50;56.50;;;;;;5078135;28;20834;-64
2023/08/14 10:06:05;;;;;;;3.20;2.33;;;29.40;56.20;;;;;;5078326;28;20470;-63
2023/08/14 10:08:35;;;;;;;2.93;2.00;;;29.30;56.30;;;;;;5077275;28;20526;-64
2023/08/14 10:11:04;;;;;;;3.20;2.13;;;29.30;56.40;;;;;;5077694;28;20465;-63
2023/08/14 10:13:32;;;;;;;2.97;2.60;;;29.30;56.30;;;;;;5078259;28;20490;-61
2023/08/14 10:16:02;;;;;;;3.20;2.90;;;29.30;56.20;;;;;;5077275;28;20450;-63
2023/08/14 10:18:31;;;;;;;5.13;2.60;;;29.30;55.90;;;;;;5077909;28;20435;-62
2023/08/14 10:21:00;;;;;;;3.37;2.80;;;29.10;56.10;;;;;;5077715;28;20448;-62
2023/08/14 10:23:28;;;;;;;4.07;2.77;;;28.90;56.50;;;;;;5077379;28;20455;-63
2023/08/14 10:25:55;;;;;;;9.47;3.10;;;28.80;56.70;;;;;;5077970;28;20439;-62
2023/08/14 10:28:23;;;;;;;4.13;2.60;;;28.80;56.80;;;;;;5078489;28;20936;-63
2023/08/14 10:30:51;;;;;;;4.23;2.43;;;28.80;56.70;;;;;;5080091;28;20446;-64
2023/08/14 10:33:19;;;;;;;3.40;2.70;;;28.80;56.50;;;;;;5080770;28;20491;-63
2023/08/14 10:35:49;;;;;;;4.47;2.80;;;28.70;56.40;;;;;;5109464;22;20494;-67
2023/08/14 10:38:16;;;;;;;2.80;2.27;;;28.80;56.40;;;;;;5095413;28;20426;-63
2023/08/14 10:40:52;;;;;;;5.33;2.73;;;28.90;56.30;;;;;;5094566;28;20434;-64
2023/08/14 10:43:26;;;;;;;3.70;2.63;;;29.00;56.20;;;;;;5095106;28;20410;-64
2023/08/14 10:45:53;;;;;;;3.10;2.60;;;29.20;55.90;;;;;;5093791;28;20466;-63
2023/08/14 10:48:21;;;;;;;4.33;2.30;;;29.30;55.50;;;;;;5094588;28;20435;-64
2023/08/14 10:50:49;;;;;;;3.20;2.43;;;29.40;55.30;;;;;;5095135;28;20445;-63
2023/08/14 10:53:16;;;;;;;6.03;3.10;;;29.40;55.30;;;;;;5094422;28;20994;-64
2023/08/14 10:55:45;;;;;;;4.80;2.90;;;29.40;55.30;;;;;;5094799;28;20496;-63
2023/08/14 10:58:47;;;;;;;4.53;3.10;;;29.30;55.40;;;;;;5094186;28;20434;-64
2023/08/14 11:01:14;;;;;;;3.70;2.57;;;29.20;55.30;;;;;;5094226;28;20437;-63
2023/08/14 11:03:58;;;;;;;5.10;3.00;;;28.90;55.50;;;;;;5094039;28;20927;-64
2023/08/14 11:06:26;;;;;;;4.73;2.63;;;28.90;55.70;;;;;;5093980;28;20458;-62
2023/08/14 11:08:59;;;;;;;5.83;2.67;;;29.00;55.70;;;;;;5093945;28;20936;-64
2023/08/14 11:11:27;;;;;;;4.90;2.93;;;28.90;55.70;;;;;;5094193;28;20457;-63
2023/08/14 11:13:55;;;;;;;4.33;3.00;;;28.80;55.90;;;;;;5094321;28;20531;-64
2023/08/14 11:16:22;;;;;;;6.37;2.60;;;28.80;56.00;;;;;;5094063;28;20983;-64
2023/08/14 11:18:49;;;;;;;2.87;2.20;;;28.90;56.00;;;;;;5094924;28;20485;-63
2023/08/14 11:21:16;;;;;;;7.63;2.97;;;28.80;56.40;;;;;;5093249;28;20944;-63
2023/08/14 11:23:43;;;;;;;5.90;2.70;;;28.80;55.90;;;;;;5094210;28;20438;-64
2023/08/14 11:26:10;;;;;;;3.17;2.57;;;28.70;56.00;;;;;;5094337;28;20458;-63
2023/08/14 11:28:37;;;;;;;4.03;2.63;;;28.70;56.20;;;;;;5094792;28;20442;-64
2023/08/14 11:31:05;;;;;;;2.60;2.40;;;28.60;56.20;;;;;;5095010;28;20795;-63
2023/08/14 11:33:32;;;;;;;4.20;3.17;;;28.60;56.00;;;;;;5095574;28;20573;-64
2023/08/14 11:35:59;;;;;;;3.50;2.43;;;28.70;55.80;;;;;;5094957;28;21050;-64
2023/08/14 11:38:26;;;;;;;3.67;2.60;;;28.80;55.50;;;;;;5094082;28;20446;-63
2023/08/14 11:40:53;;;;;;;2.90;2.50;;;28.90;55.10;;;;;;5095017;28;20540;-63
2023/08/14 11:43:20;;;;;;;2.53;2.33;;;29.00;54.90;;;;;;5095871;28;20442;-62
2023/08/14 11:45:47;;;;;;;4.80;2.57;;;29.10;54.60;;;;;;5094066;28;20473;-63
2023/08/14 11:48:16;;;;;;;3.10;2.80;;;29.20;54.10;;;;;;5094010;28;20541;-64
2023/08/14 11:50:47;;;;;;;4.07;2.60;;;29.50;53.80;;;;;;5094408;28;20442;-64
2023/08/14 11:53:14;;;;;;;2.93;2.13;;;29.70;53.20;;;;;;5094101;28;20470;-63
2023/08/14 11:55:41;;;;;;;5.40;2.40;;;29.80;53.10;;;;;;5095743;28;20470;-65
2023/08/14 11:58:08;;;;;;;4.13;2.60;;;29.70;53.00;;;;;;5096503;28;20533;-63
2023/08/14 12:00:35;;;;;;;6.20;2.60;;;29.70;53.10;;;;;;5094098;28;20529;-65
2023/08/14 12:03:02;;;;;;;4.27;2.60;;;29.70;53.20;;;;;;5093850;28;20430;-67
2023/08/14 12:05:30;;;;;;;5.27;2.80;;;29.80;53.50;;;;;;5094952;28;20542;-66
2023/08/14 12:08:00;;;;;;;6.50;3.00;;;29.80;53.50;;;;;;5094621;28;20434;-66
2023/08/14 12:10:32;;;;;;;3.20;2.70;;;30.10;53.20;;;;;;5094972;28;20431;-63
2023/08/14 12:12:59;;;;;;;4.97;2.70;;;30.90;52.10;;;;;;5094822;28;20546;-63
2023/08/14 12:15:26;;;;;;;3.03;2.57;;;31.90;50.30;;;;;;5094230;28;20468;-66
2023/08/14 12:17:52;;;;;;;4.33;2.70;;;32.70;49.10;;;;;;5093730;28;20476;-66
2023/08/14 12:20:22;;;;;;;5.90;3.70;;;33.30;48.00;;;;;;5094367;28;20456;-66
2023/08/14 12:22:50;;;;;;;5.40;2.90;;;33.60;47.20;;;;;;5093471;28;20681;-64
2023/08/14 12:25:19;;;;;;;5.33;2.60;;;33.70;46.70;;;;;;5093427;28;20461;-66
2023/08/14 12:27:46;;;;;;;5.00;2.60;;;34.00;45.70;;;;;;5093647;28;20452;-66
2023/08/14 12:30:14;;;;;;;4.73;2.60;;;34.10;45.20;;;;;;5095729;28;20779;-68
2023/08/14 12:32:45;;;;;;;3.63;3.03;;;33.90;45.20;;;;;;5097014;28;20509;-66
2023/08/14 12:35:12;;;;;;;4.10;2.50;;;33.70;45.60;;;;;;5097460;28;20466;-66
2023/08/14 12:37:39;;;;;;;5.53;2.33;;;33.40;46.00;;;;;;5097048;28;20908;-65
2023/08/14 12:40:09;;;;;;;4.03;2.60;;;33.10;46.60;;;;;;5097320;28;20966;-66
2023/08/14 12:42:37;;;;;;;5.30;3.50;;;32.60;47.20;;;;;;5098766;28;20422;-66
2023/08/14 12:45:05;;;;;;;3.07;2.40;;;32.10;47.90;;;;;;5098697;28;20430;-66
2023/08/14 12:47:32;;;;;;;5.10;2.57;;;31.70;48.60;;;;;;5097196;28;20438;-66
2023/08/14 12:49:58;;;;;;;4.70;2.70;;;31.40;49.10;;;;;;5097503;28;20438;-65
2023/08/14 12:52:25;;;;;;;3.93;2.50;;;31.30;49.60;;;;;;5098009;28;20434;-64